createdAt,value
2023-04-07T00:00:22.509Z,101363.00
2023-04-07T00:02:52.800Z,101360.00
2023-04-07T00:05:25.507Z,101357.00
2023-04-07T00:07:57.398Z,101351.00
2023-04-07T00:10:28.192Z,101351.00
2023-04-07T00:12:58.163Z,101350.00
2023-04-07T00:15:29.026Z,101344.00
2023-04-07T00:17:59.023Z,101339.00
2023-04-07T00:20:31.750Z,101349.00
2023-04-07T00:23:01.710Z,101346.00
2023-04-07T00:25:31.658Z,101337.00
2023-04-07T00:28:01.642Z,101341.00
2023-04-07T00:30:31.611Z,101341.00
2023-04-07T00:33:01.642Z,101333.00
2023-04-07T00:35:34.387Z,101328.00
2023-04-07T00:38:04.321Z,101331.00
2023-04-07T00:40:34.295Z,101329.00
2023-04-07T00:43:04.287Z,101329.00
2023-04-07T00:45:34.451Z,101330.00
2023-04-07T00:48:04.464Z,101332.00
2023-04-07T00:50:37.117Z,101318.00
2023-04-07T00:53:07.688Z,101314.00
2023-04-07T00:55:37.808Z,101319.00
2023-04-07T00:58:07.870Z,101320.00
2023-04-07T01:00:49.271Z,101312.00
2023-04-07T01:03:28.120Z,101309.00
2023-04-07T01:06:04.708Z,101300.00
2023-04-07T01:08:42.653Z,101307.00
2023-04-07T01:11:21.761Z,101305.00
2023-04-07T01:13:54.132Z,101315.00
2023-04-07T01:16:31.202Z,101306.00
2023-04-07T01:19:19.573Z,101307.00
2023-04-07T01:21:55.021Z,101304.00
2023-04-07T01:24:49.527Z,101308.00
2023-04-07T01:27:28.686Z,101297.00
2023-04-07T01:30:04.574Z,101298.00
2023-04-07T01:32:36.084Z,101298.00
2023-04-07T01:35:10.247Z,101295.00
2023-04-07T01:37:41.817Z,101299.00
2023-04-07T01:40:13.289Z,101295.00
2023-04-07T01:42:44.101Z,101299.00
2023-04-07T01:45:19.526Z,101299.00
2023-04-07T01:47:50.425Z,101292.00
2023-04-07T01:50:20.536Z,101287.00
2023-04-07T01:52:51.444Z,101293.00
2023-04-07T01:55:21.462Z,101294.00
2023-04-07T01:57:51.424Z,101281.00
2023-04-07T02:00:24.100Z,101286.00
2023-04-07T02:03:02.516Z,101281.00
2023-04-07T02:05:34.240Z,101286.00
2023-04-07T02:08:09.044Z,101277.00
2023-04-07T02:10:41.212Z,101281.00
2023-04-07T02:13:16.494Z,101287.00
2023-04-07T02:15:49.896Z,101274.00
2023-04-07T02:18:20.937Z,101273.00
2023-04-07T02:20:52.353Z,101272.00
2023-04-07T02:23:22.521Z,101272.00
2023-04-07T02:25:52.719Z,101270.00
2023-04-07T02:28:22.680Z,101270.00
2023-04-07T02:30:55.233Z,101272.00
2023-04-07T02:33:25.179Z,101274.00
2023-04-07T02:35:55.183Z,101274.00
2023-04-07T02:38:25.140Z,101266.00
2023-04-07T02:40:55.719Z,101255.00
2023-04-07T02:43:27.273Z,101270.00
2023-04-07T02:45:59.831Z,101271.00
2023-04-07T02:48:29.883Z,101268.00
2023-04-07T02:50:59.869Z,101261.00
2023-04-07T02:53:29.846Z,101266.00
2023-04-07T02:55:59.887Z,101266.00
2023-04-07T02:58:29.861Z,101263.00
2023-04-07T03:01:02.523Z,101264.00
2023-04-07T03:03:32.556Z,101263.00
2023-04-07T03:06:02.559Z,101260.00
2023-04-07T03:08:32.559Z,101263.00
2023-04-07T03:11:02.513Z,101250.00
2023-04-07T03:13:32.600Z,101258.00
2023-04-07T03:16:05.128Z,101254.00
2023-04-07T03:18:35.129Z,101248.00
2023-04-07T03:21:05.076Z,101250.00
2023-04-07T03:23:35.017Z,101248.00
2023-04-07T03:26:05.239Z,101249.00
2023-04-07T03:28:35.208Z,101246.00
2023-04-07T03:31:08.013Z,101254.00
2023-04-07T03:33:38.151Z,101246.00
2023-04-07T03:36:09.705Z,101240.00
2023-04-07T03:38:39.834Z,101237.00
2023-04-07T03:41:09.773Z,101246.00
2023-04-07T03:43:39.720Z,101233.00
2023-04-07T03:46:12.288Z,101235.00
2023-04-07T03:48:42.276Z,101232.00
2023-04-07T03:51:12.293Z,101237.00
2023-04-07T03:53:42.233Z,101225.00
2023-04-07T03:56:12.514Z,101235.00
2023-04-07T03:58:43.121Z,101240.00
2023-04-07T04:01:15.682Z,101245.00
2023-04-07T04:03:45.827Z,101238.00
2023-04-07T04:06:15.929Z,101241.00
2023-04-07T04:08:46.010Z,101243.00
2023-04-07T04:11:15.939Z,101235.00
2023-04-07T04:13:45.932Z,101237.00
2023-04-07T04:16:18.602Z,101231.00
2023-04-07T04:18:48.713Z,101230.00
2023-04-07T04:21:18.726Z,101239.00
2023-04-07T04:23:48.698Z,101224.00
2023-04-07T04:26:18.955Z,101233.00
2023-04-07T04:28:48.978Z,101231.00
2023-04-07T04:31:21.922Z,101233.00
2023-04-07T04:33:52.886Z,101239.00
2023-04-07T04:36:23.066Z,101237.00
2023-04-07T04:38:53.100Z,101234.00
2023-04-07T04:41:23.063Z,101231.00
2023-04-07T04:43:53.061Z,101231.00
2023-04-07T04:46:25.904Z,101238.00
2023-04-07T04:48:55.951Z,101239.00
2023-04-07T04:51:26.258Z,101247.00
2023-04-07T04:53:56.251Z,101248.00
2023-04-07T04:56:26.218Z,101249.00
2023-04-07T04:58:56.164Z,101241.00
2023-04-07T05:01:29.467Z,101240.00
2023-04-07T05:04:00.796Z,101238.00
2023-04-07T05:06:32.833Z,101242.00
2023-04-07T05:09:02.774Z,101244.00
2023-04-07T05:11:32.739Z,101247.00
2023-04-07T05:14:02.685Z,101246.00
2023-04-07T05:16:35.307Z,101246.00
2023-04-07T05:19:05.509Z,101234.00
2023-04-07T05:21:35.534Z,101237.00
2023-04-07T05:24:06.314Z,101240.00
2023-04-07T05:26:37.573Z,101238.00
2023-04-07T05:29:10.622Z,101237.00
2023-04-07T05:31:43.357Z,101240.00
2023-04-07T05:34:13.348Z,101244.00
2023-04-07T05:36:43.385Z,101238.00
2023-04-07T05:39:13.494Z,101242.00
2023-04-07T05:41:43.578Z,101236.00
2023-04-07T05:44:13.589Z,101248.00
2023-04-07T05:46:46.375Z,101244.00
2023-04-07T05:49:20.019Z,101250.00
2023-04-07T05:51:50.528Z,101243.00
2023-04-07T05:54:20.479Z,101249.00
2023-04-07T05:56:50.742Z,101256.00
2023-04-07T05:59:20.701Z,101254.00
2023-04-07T06:01:53.347Z,101247.00
2023-04-07T06:04:23.344Z,101257.00
2023-04-07T06:06:55.464Z,101256.00
2023-04-07T06:09:25.609Z,101266.00
2023-04-07T06:11:56.875Z,101246.00
2023-04-07T06:14:26.886Z,101257.00
2023-04-07T06:16:59.486Z,101260.00
2023-04-07T06:19:30.008Z,101255.00
2023-04-07T06:21:59.965Z,101262.00
2023-04-07T06:24:29.934Z,101269.00
2023-04-07T06:26:59.942Z,101273.00
2023-04-07T06:29:30.034Z,101273.00
2023-04-07T06:32:02.680Z,101271.00
2023-04-07T06:34:32.653Z,101278.00
2023-04-07T06:37:02.733Z,101272.00
2023-04-07T06:39:34.121Z,101269.00
2023-04-07T06:42:04.461Z,101265.00
2023-04-07T06:44:34.400Z,101269.00
2023-04-07T06:47:07.611Z,101272.00
2023-04-07T06:49:37.810Z,101273.00
2023-04-07T06:52:08.717Z,101267.00
2023-04-07T06:54:38.709Z,101277.00
2023-04-07T06:57:12.145Z,101271.00
2023-04-07T06:59:42.149Z,101279.00
2023-04-07T07:02:14.948Z,101278.00
2023-04-07T07:04:44.994Z,101279.00
2023-04-07T07:07:15.102Z,101278.00
2023-04-07T07:09:45.047Z,101275.00
2023-04-07T07:12:15.492Z,101266.00
2023-04-07T07:14:45.518Z,101269.00
2023-04-07T07:17:18.100Z,101270.00
2023-04-07T07:19:48.037Z,101279.00
2023-04-07T07:22:17.977Z,101276.00
2023-04-07T07:24:47.953Z,101275.00
2023-04-07T07:27:17.929Z,101273.00
2023-04-07T07:29:47.875Z,101278.00
2023-04-07T07:32:20.497Z,101273.00
2023-04-07T07:34:50.571Z,101280.00
2023-04-07T07:37:20.539Z,101279.00
2023-04-07T07:39:50.534Z,101281.00
2023-04-07T07:42:21.770Z,101290.00
2023-04-07T07:44:51.738Z,101287.00
2023-04-07T07:47:24.742Z,101285.00
2023-04-07T07:49:54.949Z,101285.00
2023-04-07T07:52:24.943Z,101287.00
2023-04-07T07:54:55.088Z,101299.00
2023-04-07T07:57:26.679Z,101296.00
2023-04-07T07:59:56.602Z,101302.00
2023-04-07T08:02:31.553Z,101294.00
2023-04-07T08:05:01.966Z,101310.00
2023-04-07T08:07:32.136Z,101309.00
2023-04-07T08:10:02.149Z,101313.00
2023-04-07T08:12:32.164Z,101309.00
2023-04-07T08:15:04.354Z,101304.00
2023-04-07T08:17:36.959Z,101306.00
2023-04-07T08:20:10.652Z,101305.00
2023-04-07T08:22:40.698Z,101308.00
2023-04-07T08:25:11.269Z,101312.00
2023-04-07T08:27:41.730Z,101310.00
2023-04-07T08:30:12.091Z,101313.00
2023-04-07T08:32:47.558Z,101312.00
2023-04-07T08:35:17.564Z,101321.00
2023-04-07T08:37:47.637Z,101323.00
2023-04-07T08:40:17.683Z,101319.00
2023-04-07T08:42:51.747Z,101316.00
2023-04-07T08:45:22.362Z,101316.00
2023-04-07T08:47:59.224Z,101316.00
2023-04-07T08:50:30.551Z,101318.00
2023-04-07T08:53:05.254Z,101320.00
2023-04-07T08:55:38.372Z,101321.00
2023-04-07T08:58:12.515Z,101333.00
2023-04-07T09:00:46.021Z,101328.00
2023-04-07T09:03:19.925Z,101324.00
2023-04-07T09:05:51.409Z,101337.00
2023-04-07T09:08:21.488Z,101335.00
2023-04-07T09:10:51.484Z,101328.00
2023-04-07T09:13:21.455Z,101344.00
2023-04-07T09:15:51.577Z,101336.00
2023-04-07T09:18:24.184Z,101336.00
2023-04-07T09:21:02.122Z,101335.00
2023-04-07T09:23:34.625Z,101336.00
2023-04-07T09:26:22.247Z,101338.00
2023-04-07T09:28:57.213Z,101336.00
2023-04-07T09:31:46.832Z,101331.00
2023-04-07T09:34:29.413Z,101332.00
2023-04-07T09:36:59.633Z,101343.00
2023-04-07T09:39:30.252Z,101331.00
2023-04-07T09:42:01.297Z,101332.00
2023-04-07T09:44:31.842Z,101338.00
2023-04-07T09:47:02.506Z,101335.00
2023-04-07T09:49:35.094Z,101342.00
2023-04-07T09:52:07.887Z,101348.00
2023-04-07T09:54:39.267Z,101334.00
2023-04-07T09:57:11.426Z,101345.00
2023-04-07T09:59:44.742Z,101346.00
2023-04-07T10:02:15.183Z,101339.00
2023-04-07T10:04:48.103Z,101345.00
2023-04-07T10:07:18.933Z,101345.00
2023-04-07T10:09:48.911Z,101347.00
2023-04-07T10:12:19.124Z,101349.00
2023-04-07T10:14:50.818Z,101347.00
2023-04-07T10:17:22.468Z,101344.00
2023-04-07T10:19:55.939Z,101345.00
2023-04-07T10:22:26.746Z,101342.00
2023-04-07T10:25:02.283Z,101345.00
2023-04-07T10:27:36.558Z,101342.00
2023-04-07T10:30:15.128Z,101342.00
2023-04-07T10:32:52.098Z,101336.00
2023-04-07T10:35:25.433Z,101340.00
2023-04-07T10:38:15.332Z,101339.00
2023-04-07T10:40:46.399Z,101339.00
2023-04-07T10:43:37.737Z,101338.00
2023-04-07T10:46:07.824Z,101338.00
2023-04-07T10:48:37.904Z,101336.00
2023-04-07T10:51:22.978Z,101346.00
2023-04-07T10:54:29.102Z,101350.00
2023-04-07T10:57:14.262Z,101342.00
2023-04-07T11:00:17.898Z,101342.00
2023-04-07T11:02:48.808Z,101340.00
2023-04-07T11:05:26.268Z,101338.00
2023-04-07T11:08:02.719Z,101343.00
2023-04-07T11:10:32.653Z,101342.00
2023-04-07T11:13:05.089Z,101348.00
2023-04-07T11:15:39.357Z,101341.00
2023-04-07T11:18:16.892Z,101342.00
2023-04-07T11:20:50.369Z,101341.00
2023-04-07T11:23:25.589Z,101345.00
2023-04-07T11:26:03.090Z,101346.00
2023-04-07T11:28:33.902Z,101338.00
2023-04-07T11:31:04.006Z,101331.00
2023-04-07T11:33:37.169Z,101333.00
2023-04-07T11:36:10.271Z,101335.00
2023-04-07T11:38:45.455Z,101337.00
2023-04-07T11:41:18.390Z,101327.00
2023-04-07T11:43:48.521Z,101344.00
2023-04-07T11:46:20.854Z,101328.00
2023-04-07T11:48:52.002Z,101332.00
2023-04-07T11:51:25.449Z,101326.00
2023-04-07T11:54:00.640Z,101328.00
2023-04-07T11:56:30.716Z,101317.00
2023-04-07T11:59:01.347Z,101326.00
2023-04-07T12:01:45.254Z,101325.00
2023-04-07T12:04:17.592Z,101331.00
2023-04-07T12:06:49.791Z,101322.00
2023-04-07T12:09:36.088Z,101330.00
2023-04-07T12:12:08.321Z,101323.00
2023-04-07T12:14:38.795Z,101322.00
2023-04-07T12:17:09.588Z,101324.00
2023-04-07T12:19:39.795Z,101324.00
2023-04-07T12:22:10.265Z,101323.00
2023-04-07T12:24:42.885Z,101323.00
2023-04-07T12:27:12.933Z,101322.00
2023-04-07T12:29:44.001Z,101315.00
2023-04-07T12:32:14.665Z,101328.00
2023-04-07T12:34:44.770Z,101319.00
2023-04-07T12:37:14.746Z,101317.00
2023-04-07T12:39:47.290Z,101314.00
2023-04-07T12:42:17.276Z,101311.00
2023-04-07T12:44:47.248Z,101321.00
2023-04-07T12:47:17.610Z,101315.00
2023-04-07T12:49:49.695Z,101319.00
2023-04-07T12:52:20.209Z,101316.00
2023-04-07T12:54:53.641Z,101324.00
2023-04-07T12:57:23.884Z,101314.00
2023-04-07T12:59:54.666Z,101320.00
2023-04-07T13:02:24.948Z,101318.00
2023-04-07T13:04:55.087Z,101321.00
2023-04-07T13:07:25.064Z,101323.00
2023-04-07T13:09:57.621Z,101321.00
2023-04-07T13:12:28.199Z,101317.00
2023-04-07T13:15:00.407Z,101320.00
2023-04-07T13:17:30.731Z,101311.00
2023-04-07T13:20:01.431Z,101307.00
2023-04-07T13:22:32.196Z,101307.00
2023-04-07T13:25:04.874Z,101315.00
2023-04-07T13:27:34.869Z,101318.00
2023-04-07T13:30:04.837Z,101314.00
2023-04-07T13:32:34.896Z,101312.00
2023-04-07T13:35:04.865Z,101314.00
2023-04-07T13:37:34.862Z,101313.00
2023-04-07T13:40:09.659Z,101318.00
2023-04-07T13:42:39.683Z,101317.00
2023-04-07T13:45:11.641Z,101310.00
2023-04-07T13:47:41.645Z,101308.00
2023-04-07T13:50:12.661Z,101310.00
2023-04-07T13:52:42.619Z,101304.00
2023-04-07T13:55:16.204Z,101304.00
2023-04-07T13:57:46.153Z,101306.00
2023-04-07T14:00:18.107Z,101304.00
2023-04-07T14:02:48.639Z,101307.00
2023-04-07T14:05:19.018Z,101294.00
2023-04-07T14:07:49.765Z,101294.00
2023-04-07T14:10:22.502Z,101296.00
2023-04-07T14:12:52.623Z,101293.00
2023-04-07T14:15:22.641Z,101287.00
2023-04-07T14:17:52.674Z,101290.00
2023-04-07T14:20:24.203Z,101287.00
2023-04-07T14:22:55.366Z,101286.00
2023-04-07T14:25:28.031Z,101278.00
2023-04-07T14:27:57.985Z,101279.00
2023-04-07T14:30:28.002Z,101287.00
2023-04-07T14:32:58.023Z,101293.00
2023-04-07T14:35:28.286Z,101279.00
2023-04-07T14:37:58.304Z,101282.00
2023-04-07T14:40:31.213Z,101282.00
2023-04-07T14:45:34.740Z,101284.00
2023-04-07T14:48:05.536Z,101283.00
2023-04-07T14:50:35.651Z,101291.00
2023-04-07T14:53:06.756Z,101279.00
2023-04-07T14:55:41.586Z,101284.00
2023-04-07T14:58:11.495Z,101285.00
2023-04-07T15:00:41.472Z,101286.00
2023-04-07T15:03:11.767Z,101284.00
2023-04-07T15:05:41.890Z,101281.00
2023-04-07T15:08:11.849Z,101284.00
2023-04-07T15:10:47.209Z,101290.00
2023-04-07T15:13:17.191Z,101288.00
2023-04-07T15:15:47.186Z,101285.00
2023-04-07T15:18:17.188Z,101291.00
2023-04-07T15:20:47.212Z,101286.00
2023-04-07T15:23:17.253Z,101292.00
2023-04-07T15:25:56.124Z,101287.00
2023-04-07T15:28:26.805Z,101294.00
2023-04-07T15:30:56.729Z,101287.00
2023-04-07T15:33:27.340Z,101292.00
2023-04-07T15:35:57.805Z,101275.00
2023-04-07T15:38:27.798Z,101285.00
2023-04-07T15:41:00.597Z,101293.00
2023-04-07T15:43:30.809Z,101287.00
2023-04-07T15:46:01.006Z,101277.00
2023-04-07T15:48:31.253Z,101277.00
2023-04-07T15:51:01.233Z,101273.00
2023-04-07T15:53:31.255Z,101286.00
2023-04-07T15:56:03.882Z,101287.00
2023-04-07T15:58:34.507Z,101290.00
2023-04-07T16:01:05.232Z,101279.00
2023-04-07T16:03:37.853Z,101284.00
2023-04-07T16:06:07.940Z,101289.00
2023-04-07T16:08:37.931Z,101286.00
2023-04-07T16:11:10.552Z,101293.00
2023-04-07T16:13:40.586Z,101288.00
2023-04-07T16:16:10.681Z,101289.00
2023-04-07T16:18:53.560Z,101285.00
2023-04-07T16:21:27.791Z,101296.00
2023-04-07T16:24:07.310Z,101284.00
2023-04-07T16:26:39.988Z,101280.00
2023-04-07T16:29:15.607Z,101286.00
2023-04-07T16:31:55.232Z,101292.00
2023-04-07T16:34:35.617Z,101266.00
2023-04-07T16:37:09.747Z,101271.00
2023-04-07T16:39:48.374Z,101266.00
2023-04-07T16:42:23.252Z,101277.00
2023-04-07T16:44:58.812Z,101274.00
2023-04-07T16:47:30.988Z,101291.00
2023-04-07T16:50:05.592Z,101287.00
2023-04-07T16:52:37.604Z,101280.00
2023-04-07T16:55:13.188Z,101285.00
2023-04-07T16:57:56.245Z,101274.00
2023-04-07T17:00:32.236Z,101290.00
2023-04-07T17:03:05.509Z,101271.00
2023-04-07T17:05:44.970Z,101282.00
2023-04-07T17:08:16.436Z,101291.00
2023-04-07T17:10:49.556Z,101286.00
2023-04-07T17:13:25.726Z,101298.00
2023-04-07T17:16:22.573Z,101278.00
2023-04-07T17:19:03.052Z,101308.00
2023-04-07T17:21:34.558Z,101297.00
2023-04-07T17:24:13.051Z,101312.00
2023-04-07T17:26:44.032Z,101302.00
2023-04-07T17:29:21.473Z,101298.00
2023-04-07T17:31:56.650Z,101313.00
2023-04-07T17:34:31.348Z,101293.00
2023-04-07T17:37:06.296Z,101288.00
2023-04-07T17:39:42.646Z,101308.00
2023-04-07T17:42:19.545Z,101313.00
2023-04-07T17:44:58.782Z,101320.00
2023-04-07T17:47:33.952Z,101310.00
2023-04-07T17:50:05.116Z,101322.00
2023-04-07T17:52:40.584Z,101305.00
2023-04-07T17:55:15.732Z,101335.00
2023-04-07T17:57:49.252Z,101320.00
2023-04-07T18:00:27.207Z,101322.00
2023-04-07T18:03:01.266Z,101329.00
2023-04-07T18:05:33.108Z,101316.00
2023-04-07T18:08:06.380Z,101319.00
2023-04-07T18:10:38.647Z,101318.00
2023-04-07T18:13:13.793Z,101326.00
2023-04-07T18:15:52.087Z,101330.00
2023-04-07T18:18:23.751Z,101330.00
2023-04-07T18:20:55.045Z,101326.00
2023-04-07T18:23:31.930Z,101342.00
2023-04-07T18:26:10.351Z,101343.00
2023-04-07T18:28:41.424Z,101372.00
2023-04-07T18:31:18.689Z,101364.00
2023-04-07T18:33:52.840Z,101363.00
2023-04-07T18:36:27.760Z,101374.00
2023-04-07T18:39:02.735Z,101350.00
2023-04-07T18:41:36.590Z,101359.00
2023-04-07T18:44:10.830Z,101381.00
2023-04-07T18:46:46.918Z,101394.00
2023-04-07T18:49:20.033Z,101373.00
2023-04-07T18:51:52.778Z,101358.00
2023-04-07T18:54:28.866Z,101387.00
2023-04-07T18:57:01.137Z,101375.00
2023-04-07T18:59:34.451Z,101367.00
2023-04-07T19:02:14.228Z,101372.00
2023-04-07T19:04:46.635Z,101399.00
2023-04-07T19:07:17.954Z,101369.00
2023-04-07T19:09:54.337Z,101382.00
2023-04-07T19:12:36.771Z,101402.00
2023-04-07T19:15:09.249Z,101390.00
2023-04-07T19:17:42.876Z,101407.00
2023-04-07T19:20:21.878Z,101373.00
2023-04-07T19:23:00.491Z,101410.00
2023-04-07T19:25:40.708Z,101409.00
2023-04-07T19:28:16.117Z,101406.00
2023-04-07T19:30:54.775Z,101382.00
2023-04-07T19:33:30.353Z,101392.00
2023-04-07T19:36:08.993Z,101407.00
2023-04-07T19:38:44.749Z,101397.00
2023-04-07T19:41:22.391Z,101393.00
2023-04-07T19:43:55.611Z,101377.00
2023-04-07T19:46:33.735Z,101396.00
2023-04-07T19:49:13.569Z,101364.00
2023-04-07T19:51:44.691Z,101376.00
2023-04-07T19:54:21.814Z,101363.00
2023-04-07T19:56:52.930Z,101365.00
2023-04-07T19:59:26.527Z,101369.00
2023-04-07T20:02:00.520Z,101381.00
2023-04-07T20:04:37.963Z,101381.00
2023-04-07T20:07:28.556Z,101385.00
2023-04-07T20:10:02.569Z,101361.00
2023-04-07T20:12:33.771Z,101379.00
2023-04-07T20:15:11.582Z,101380.00
2023-04-07T20:17:48.847Z,101370.00
2023-04-07T20:20:26.184Z,101358.00
2023-04-07T20:23:05.937Z,101368.00
2023-04-07T20:25:43.431Z,101360.00
2023-04-07T20:28:18.010Z,101366.00
2023-04-07T20:30:56.841Z,101385.00
2023-04-07T20:33:29.119Z,101397.00
2023-04-07T20:36:02.813Z,101401.00
2023-04-07T20:38:44.742Z,101411.00
2023-04-07T20:41:22.124Z,101385.00
2023-04-07T20:43:57.518Z,101396.00
2023-04-07T20:46:39.427Z,101400.00
2023-04-07T20:49:17.196Z,101390.00
2023-04-07T20:51:54.322Z,101404.00
2023-04-07T20:54:27.966Z,101397.00
2023-04-07T20:57:08.942Z,101399.00
2023-04-07T20:59:46.787Z,101402.00
2023-04-07T21:02:26.129Z,101405.00
2023-04-07T21:05:05.603Z,101383.00
2023-04-07T21:07:38.284Z,101410.00
2023-04-07T21:10:10.956Z,101400.00
2023-04-07T21:12:41.497Z,101400.00
2023-04-07T21:15:12.200Z,101402.00
2023-04-07T21:17:42.235Z,101407.00
2023-04-07T21:20:14.564Z,101404.00
2023-04-07T21:22:47.444Z,101405.00
2023-04-07T21:25:17.430Z,101408.00
2023-04-07T21:27:47.387Z,101399.00
2023-04-07T21:30:18.179Z,101408.00
2023-04-07T21:32:48.712Z,101407.00
2023-04-07T21:35:19.909Z,101403.00
2023-04-07T21:37:52.476Z,101392.00
2023-04-07T21:40:23.196Z,101405.00
2023-04-07T21:42:53.901Z,101407.00
2023-04-07T21:45:23.904Z,101407.00
2023-04-07T21:47:53.906Z,101394.00
2023-04-07T21:50:24.158Z,101394.00
2023-04-07T21:52:56.734Z,101398.00
2023-04-07T21:55:27.410Z,101404.00
2023-04-07T21:57:58.249Z,101397.00
2023-04-07T22:00:28.246Z,101392.00
2023-04-07T22:02:58.466Z,101395.00
2023-04-07T22:05:28.596Z,101404.00
2023-04-07T22:08:02.462Z,101401.00
2023-04-07T22:10:32.852Z,101403.00
2023-04-07T22:13:02.820Z,101397.00
2023-04-07T22:15:32.921Z,101404.00
2023-04-07T22:18:03.765Z,101397.00
2023-04-07T22:20:33.751Z,101402.00
2023-04-07T22:23:06.667Z,101405.00
2023-04-07T22:25:36.745Z,101394.00
2023-04-07T22:28:06.717Z,101403.00
2023-04-07T22:30:36.754Z,101396.00
2023-04-07T22:33:07.313Z,101399.00
2023-04-07T22:35:38.487Z,101380.00
2023-04-07T22:38:11.118Z,101392.00
2023-04-07T22:40:41.117Z,101393.00
2023-04-07T22:43:11.134Z,101387.00
2023-04-07T22:45:41.470Z,101398.00
2023-04-07T22:48:11.506Z,101404.00
2023-04-07T22:50:41.521Z,101406.00
2023-04-07T22:53:14.059Z,101408.00
2023-04-07T22:55:44.130Z,101405.00
2023-04-07T22:58:14.075Z,101411.00
2023-04-07T23:00:44.310Z,101414.00
2023-04-07T23:03:15.073Z,101406.00
2023-04-07T23:05:45.119Z,101411.00
2023-04-07T23:08:17.644Z,101402.00
2023-04-07T23:10:47.600Z,101399.00
2023-04-07T23:13:19.064Z,101405.00
2023-04-07T23:15:49.195Z,101413.00
2023-04-07T23:18:19.143Z,101397.00
2023-04-07T23:20:54.077Z,101402.00
2023-04-07T23:23:27.240Z,101393.00
2023-04-07T23:25:57.259Z,101399.00
2023-04-07T23:28:28.212Z,101406.00
2023-04-07T23:30:58.405Z,101403.00
2023-04-07T23:33:28.352Z,101406.00
2023-04-07T23:35:58.479Z,101406.00
2023-04-07T23:38:31.059Z,101399.00
2023-04-07T23:41:01.010Z,101397.00
2023-04-07T23:43:30.991Z,101391.00
2023-04-07T23:46:00.944Z,101392.00
2023-04-07T23:48:31.012Z,101400.00
2023-04-07T23:51:01.580Z,101403.00
2023-04-07T23:53:34.152Z,101397.00
2023-04-07T23:56:04.135Z,101403.00
2023-04-07T23:58:34.155Z,101397.00
